North Quincy, Massachusetts
Current Conditions -  °F | °C
As of 6:54 AM on Monday 20 Oct 2014 (Local Time) from KBOS Reporting Station
Scattered Clouds Scattered Clouds  
Wind Chill: 34°   Ceiling: Unl
Heat Index: 40°   Visibility: 10mi
Dew Point: 26°   Wind: 9mph
Humidity: 58%   Direction: 250°WSW
Pressure: 30.04"   Gusts: NA
Location:  42.2866°N, 71.0248°W
Report Text: KBOS 201054Z 25008KT 10SM FEW050 SCT250 04/M03 A3004 RMK AO2 SLP171 T00441033
Loading
Personal Weather Stations






























Interactive Weather Map
Tropical Storm Tracking
New forecast layout! Learn more

10-Day Weather Forecast

Advertisements
Track Severe Weather on mobile